Time;durP1;ratioP1;P1;durP2;ratioP2;P2;SDS_P1;SDS_P2;PMS_P1;PMS_P2;Temp;Humidity;BMP_temperature;BMP_pressure;BME280_temperature;BME280_humidity;BME280_pressure;Samples;Min_cycle;Max_cycle;Signal;HPM_P1;HPM_P2
2023/08/15 00:01:55;;;;;;;;;;;20.20;68.40;;;19.50;62.57;96794.66;6112469;23;19928;-87
2023/08/15 00:04:27;;;;;;;;;;;20.20;68.60;;;19.49;62.57;96787.44;6088671;23;19921;-87
2023/08/15 00:07:05;;;;;;;;;;;20.20;68.60;;;19.47;62.52;96792.50;6088723;23;20516;-87
2023/08/15 00:10:30;;;;;;;;;;;20.10;68.60;;;19.46;62.42;96790.84;6094533;23;19921;-87
2023/08/15 00:13:05;;;;;;;;;;;20.10;68.50;;;19.45;62.39;96798.38;6111681;23;19921;-87
2023/08/15 00:15:52;;;;;;;;;;;20.10;68.50;;;19.44;62.58;96793.13;6088213;23;19928;-87
2023/08/15 00:19:02;;;;;;;;;;;20.10;68.60;;;19.41;62.58;96791.78;6096310;23;19921;-87
2023/08/15 00:21:35;;;;;;;;;;;20.10;68.60;;;19.42;62.72;96801.78;6089189;23;19927;-87
2023/08/15 00:24:11;;;;;;;;;;;20.10;68.70;;;19.43;62.67;96800.63;6088555;23;19927;-86
2023/08/15 00:26:41;;;;;;;;;;;20.10;68.70;;;19.43;62.80;96794.25;6089630;23;19921;-86
2023/08/15 00:29:19;;;;;;;;;;;20.10;68.80;;;19.42;62.73;96795.41;6088616;23;19920;-87
2023/08/15 00:31:48;;;;;;;;;;;20.10;68.60;;;19.43;62.51;96794.25;6112381;23;19921;-86
2023/08/15 00:34:48;;;;;;;;;;;20.10;68.70;;;19.43;62.59;96806.19;6090750;23;19928;-87
2023/08/15 00:37:25;;;;;;;;;;;20.10;68.70;;;19.45;62.51;96789.22;6087767;23;19924;-87
2023/08/15 00:39:53;;;;;;;;;;;20.10;68.60;;;19.43;62.57;96783.97;6088134;23;19928;-87
2023/08/15 00:42:47;;;;;;;;;;;20.10;68.50;;;19.46;62.36;96799.19;6087953;23;19943;-86
2023/08/15 00:45:39;;;;;;;;;;;20.10;68.50;;;19.43;62.33;96797.03;6095677;23;19931;-87
2023/08/15 00:48:08;;;;;;;;;;;20.10;68.40;;;19.43;62.28;96806.19;6088237;23;19928;-87
2023/08/15 00:50:38;;;;;;;;;;;20.10;68.30;;;19.40;62.28;96801.25;6088530;23;19921;-86
2023/08/15 00:53:18;;;;;;;;;;;20.10;68.20;;;19.41;62.18;96802.09;6113637;23;19920;-87
2023/08/15 00:55:54;;;;;;;;;;;20.10;68.30;;;19.40;62.16;96804.03;6089201;23;19921;-87
2023/08/15 00:58:31;;;;;;;;;;;20.10;68.30;;;19.38;62.13;96786.06;6088908;23;19920;-87
2023/08/15 01:01:18;;;;;;;;;;;20.10;68.30;;;19.38;62.30;96797.16;6072318;23;20237;-87
2023/08/15 01:03:51;;;;;;;;;;;20.10;68.30;;;19.38;62.36;96794.38;6111823;23;19920;-86
2023/08/15 01:06:28;;;;;;;;;;;20.10;68.30;;;19.37;62.13;96807.44;6068367;23;19921;-87
2023/08/15 01:09:14;;;;;;;;;;;20.00;68.20;;;19.35;62.21;96795.00;6088492;23;19921;-86
2023/08/15 01:11:49;;;;;;;;;;;20.00;68.30;;;19.34;62.22;96785.88;6111600;23;20364;-87
2023/08/15 01:14:49;;;;;;;;;;;20.00;68.10;;;19.37;62.06;96789.97;6091907;23;19921;-87
2023/08/15 01:17:34;;;;;;;;;;;20.00;68.10;;;19.35;62.31;96792.22;6088739;23;19921;-86
2023/08/15 01:20:23;;;;;;;;;;;20.00;68.30;;;19.35;62.33;96787.50;6088746;23;19921;-87
2023/08/15 01:23:24;;;;;;;;;;;20.00;68.20;;;19.32;62.16;96780.59;6112389;23;20370;-87
2023/08/15 01:25:57;;;;;;;;;;;20.00;68.90;;;19.35;61.84;96786.66;6088096;23;19921;-87
2023/08/15 01:28:29;;;;;;;;;;;20.00;67.80;;;19.33;61.89;96784.22;6088150;23;19976;-86
2023/08/15 01:31:04;;;;;;;;;;;20.00;67.80;;;19.31;62.08;96778.16;6088077;23;19921;-87
2023/08/15 01:33:39;;;;;;;;;;;20.00;67.80;;;19.30;61.78;96785.66;6088076;23;20501;-86
2023/08/15 01:36:28;;;;;;;;;;;20.00;67.80;;;19.30;62.11;96777.31;6112222;23;19920;-86
2023/08/15 01:39:03;;;;;;;;;;;20.00;67.80;;;19.29;61.72;96784.03;6088831;23;20255;-86
2023/08/15 01:41:37;;;;;;;;;;;20.00;67.70;;;19.27;61.58;96772.41;6088114;23;19920;-86
2023/08/15 01:44:09;;;;;;;;;;;20.00;67.70;;;19.30;61.85;96765.41;6088269;23;20256;-86
2023/08/15 01:46:40;;;;;;;;;;;20.00;67.80;;;19.28;62.12;96768.50;6112418;23;19921;-87
2023/08/15 01:49:11;;;;;;;;;;;20.00;67.80;;;19.27;61.63;96757.69;6088004;23;19920;-86
2023/08/15 01:51:46;;;;;;;;;;;20.00;67.70;;;19.27;61.84;96763.25;6087375;23;20241;-86
2023/08/15 01:54:18;;;;;;;;;;;20.00;67.60;;;19.26;61.97;96756.06;6112733;23;20370;-86
2023/08/15 01:56:52;;;;;;;;;;;20.00;67.90;;;19.25;61.79;96749.69;6087849;23;19927;-86
2023/08/15 01:59:23;;;;;;;;;;;20.00;67.70;;;19.26;61.57;96767.16;6088185;23;19921;-86
2023/08/15 02:02:06;;;;;;;;;;;19.90;67.60;;;19.24;61.68;96750.84;6087280;23;19921;-85
2023/08/15 02:04:43;;;;;;;;;;;19.90;67.50;;;19.23;61.58;96754.75;6089227;23;19921;-85
2023/08/15 02:07:14;;;;;;;;;;;19.90;67.30;;;19.21;61.70;96754.22;6087812;23;20293;-86
2023/08/15 02:09:47;;;;;;;;;;;19.90;67.40;;;19.22;61.70;96764.19;6088524;23;20252;-86
2023/08/15 02:12:27;;;;;;;;;;;19.90;67.70;;;19.22;61.44;96772.53;6110700;23;19928;-86
2023/08/15 02:15:09;;;;;;;;;;;19.90;67.50;;;19.23;61.50;96776.94;6087587;23;20260;-86
2023/08/15 02:17:47;;;;;;;;;;;19.90;67.40;;;19.20;61.24;96779.53;6059344;23;21234;-86
2023/08/15 02:20:18;;;;;;;;;;;19.90;67.30;;;19.19;61.54;96769.56;6059058;23;19921;-86
2023/08/15 02:22:53;;;;;;;;;;;19.90;67.40;;;19.20;61.33;96751.78;6059246;23;19921;-86
2023/08/15 02:25:22;;;;;;;;;;;19.90;67.40;;;19.18;61.68;96763.16;6082978;23;19921;-86
2023/08/15 02:28:00;;;;;;;;;;;19.90;67.60;;;19.17;61.72;96767.91;6059350;23;19936;-86
2023/08/15 02:30:29;;;;;;;;;;;19.90;67.60;;;19.17;61.79;96753.19;6082349;23;19936;-86
2023/08/15 02:32:58;;;;;;;;;;;19.90;67.80;;;19.20;61.95;96751.78;6058740;23;20261;-86
2023/08/15 02:35:26;;;;;;;;;;;19.90;67.90;;;19.17;61.60;96747.66;6058915;23;19928;-86
2023/08/15 02:37:57;;;;;;;;;;;19.90;67.50;;;19.17;61.31;96753.19;6058653;23;20341;-86
2023/08/15 02:40:26;;;;;;;;;;;19.90;67.40;;;19.16;61.60;96757.94;6082257;23;19921;-86
2023/08/15 02:42:54;;;;;;;;;;;19.90;67.50;;;19.18;61.49;96749.28;6081594;23;19928;-86
2023/08/15 02:45:27;;;;;;;;;;;19.90;67.60;;;19.16;61.42;96749.63;6082597;23;19928;-86
2023/08/15 02:47:58;;;;;;;;;;;19.90;67.50;;;19.15;61.41;96744.41;6058989;23;19921;-86
2023/08/15 02:50:30;;;;;;;;;;;19.80;67.40;;;19.15;61.23;96755.50;6058677;23;19921;-86
2023/08/15 02:53:07;;;;;;;;;;;19.80;67.20;;;19.13;61.39;96746.66;6059188;23;20230;-86
2023/08/15 02:55:35;;;;;;;;;;;19.80;67.30;;;19.14;61.38;96760.22;6058998;23;19921;-86
2023/08/15 02:58:14;;;;;;;;;;;19.80;67.20;;;19.15;61.45;96763.81;6060316;23;19925;-86
2023/08/15 03:00:49;;;;;;;;;;;19.80;67.10;;;19.14;61.50;96770.50;6080676;23;19928;-85
2023/08/15 03:03:21;;;;;;;;;;;19.80;67.10;;;19.12;61.29;96772.75;6083244;23;19928;-86
2023/08/15 03:05:53;;;;;;;;;;;19.80;67.10;;;19.11;61.25;96769.16;6060009;23;20360;-85
2023/08/15 03:08:24;;;;;;;;;;;19.80;67.10;;;19.09;61.47;96773.38;6083064;23;19921;-86
2023/08/15 03:11:07;;;;;;;;;;;;;;;;;;;;;
2023/08/15 03:13:38;;;;;;;;;;;19.80;67.20;;;19.10;61.14;96773.09;6059855;23;19944;-86
2023/08/15 03:16:20;;;;;;;;;;;19.80;67.10;;;19.09;61.42;96770.59;6061602;23;19921;-86
2023/08/15 03:18:50;;;;;;;;;;;19.80;67.30;;;19.11;61.69;96776.66;6059720;23;19921;-86
2023/08/15 03:21:21;;;;;;;;;;;19.80;67.60;;;19.09;61.44;96765.06;6059485;23;19921;-86
2023/08/15 03:23:52;;;;;;;;;;;19.80;67.20;;;19.09;61.40;96767.84;6060130;23;19925;-85
2023/08/15 03:26:21;;;;;;;;;;;19.80;67.10;;;19.09;61.12;96777.00;6083153;23;19928;-86
2023/08/15 03:28:52;;;;;;;;;;;19.80;67.00;;;19.08;61.22;96785.63;6060056;23;19921;-86
2023/08/15 03:31:22;;;;;;;;;;;19.80;67.00;;;19.08;61.00;96782.84;6082674;23;19921;-86
2023/08/15 03:34:00;;;;;;;;;;;19.80;67.00;;;19.06;61.30;96787.88;6060598;23;19921;-86
2023/08/15 03:36:37;;;;;;;;;;;19.80;67.00;;;19.06;61.28;96788.72;6060087;23;19927;-86
2023/08/15 03:39:14;;;;;;;;;;;19.70;67.10;;;19.03;61.15;96783.78;6059965;23;19921;-86
2023/08/15 03:41:46;;;;;;;;;;;19.70;67.00;;;19.05;61.35;96789.84;6082983;23;20341;-86
2023/08/15 03:44:20;;;;;;;;;;;19.70;67.10;;;19.03;61.00;96789.31;6059825;23;20341;-86
2023/08/15 03:46:56;;;;;;;;;;;19.70;67.10;;;19.04;61.33;96795.72;6060308;23;19921;-86
2023/08/15 03:49:26;;;;;;;;;;;19.70;67.20;;;19.05;61.11;96797.31;6059944;23;19925;-86
2023/08/15 03:51:57;;;;;;;;;;;19.70;66.90;;;19.03;61.03;96791.28;6083060;23;19921;-86
2023/08/15 03:54:38;;;;;;;;;;;19.70;66.90;;;19.03;61.25;96796.84;6060370;23;19928;-86
2023/08/15 03:57:09;;;;;;;;;;;19.70;67.90;;;19.04;61.14;96802.06;6059799;23;19928;-86
2023/08/15 03:59:39;;;;;;;;;;;19.70;67.00;;;19.03;61.22;96800.44;6059468;23;19928;-86
2023/08/15 04:02:12;;;;;;;;;;;19.70;66.90;;;19.00;61.09;96796.31;6060133;23;19928;-86
2023/08/15 04:04:43;;;;;;;;;;;19.70;67.10;;;19.02;61.48;96796.00;6059875;23;19921;-86
2023/08/15 04:07:14;;;;;;;;;;;19.70;67.20;;;18.99;61.10;96786.34;6059424;23;20375;-86
2023/08/15 04:09:45;;;;;;;;;;;19.70;67.10;;;18.99;61.23;96791.06;6059925;23;19925;-86
2023/08/15 04:12:18;;;;;;;;;;;19.70;67.20;;;18.99;61.19;96791.91;6059147;23;19925;-86
2023/08/15 04:14:48;;;;;;;;;;;19.70;67.10;;;18.98;61.35;96789.44;6059494;23;19936;-86
2023/08/15 04:17:20;;;;;;;;;;;19.70;67.30;;;18.97;61.54;96788.63;6059883;23;19928;-86
2023/08/15 04:19:54;;;;;;;;;;;19.70;67.30;;;18.98;61.53;96789.44;6059864;23;19928;-86
2023/08/15 04:22:26;;;;;;;;;;;19.70;67.40;;;18.99;61.66;96788.28;6059747;23;19920;-86
2023/08/15 04:24:55;;;;;;;;;;;19.70;67.50;;;19.01;61.60;96789.66;6059441;23;19921;-86
2023/08/15 04:27:23;;;;;;;;;;;19.70;67.50;;;19.01;61.49;96800.75;6082961;23;19921;-86
2023/08/15 04:29:55;;;;;;;;;;;19.70;67.50;;;19.04;61.86;96798.50;6059195;23;19921;-86
2023/08/15 04:32:40;;;;;;;;;;;19.70;67.70;;;19.05;61.79;96794.56;6082447;23;19921;-86
2023/08/15 04:35:12;;;;;;;;;;;19.70;67.80;;;19.08;62.07;96791.16;6059831;23;19921;-86
2023/08/15 04:37:43;;;;;;;;;;;19.80;68.00;;;19.15;61.94;96799.91;6059389;23;19921;-86
2023/08/15 04:40:16;;;;;;;;;;;19.80;67.80;;;19.16;61.56;96796.00;6059592;23;19921;-86
2023/08/15 04:42:51;;;;;;;;;;;19.90;67.80;;;19.20;61.74;96788.66;6059033;23;20264;-86
2023/08/15 04:45:25;;;;;;;;;;;19.90;67.80;;;19.23;61.85;96790.81;6060236;23;19928;-86
2023/08/15 04:47:55;;;;;;;;;;;19.90;67.80;;;19.21;61.61;96797.81;6059297;23;19928;-86
2023/08/15 04:50:25;;;;;;;;;;;19.90;67.50;;;19.22;61.66;96802.25;6059420;23;20360;-86
2023/08/15 04:52:53;;;;;;;;;;;19.90;67.60;;;19.22;61.55;96788.38;6059125;23;19921;-86
2023/08/15 04:55:26;;;;;;;;;;;19.90;67.60;;;19.20;61.66;96791.44;6083086;23;19925;-86
2023/08/15 04:58:14;;;;;;;;;;;19.90;67.60;;;19.23;62.02;96788.03;6059377;23;20352;-87
2023/08/15 05:00:43;;;;;;;;;;;19.90;67.90;;;19.25;61.89;96788.56;6082204;23;20337;-86
2023/08/15 05:03:15;;;;;;;;;;;19.90;67.90;;;19.29;61.82;96805.41;6058878;23;20265;-86
2023/08/15 05:05:43;;;;;;;;;;;20.00;67.80;;;19.30;61.87;96804.28;6082965;23;19921;-86
2023/08/15 05:08:12;;;;;;;;;;;20.00;67.60;;;19.34;61.97;96802.53;6082770;23;19928;-86
2023/08/15 05:10:43;;;;;;;;;;;20.00;67.90;;;19.35;61.81;96792.22;6059778;23;19921;-86
2023/08/15 05:13:21;;;;;;;;;;;20.00;67.70;;;19.39;62.01;96796.03;6060601;23;19921;-86
2023/08/15 05:15:49;;;;;;;;;;;20.00;67.80;;;19.42;61.62;96798.19;6082358;23;19921;-86
2023/08/15 05:18:20;;;;;;;;;;;20.10;67.90;;;19.41;61.83;96782.66;6059669;23;20284;-86
2023/08/15 05:20:51;;;;;;;;;;;20.10;67.80;;;19.42;61.69;96775.97;6059342;23;20333;-87
2023/08/15 05:23:25;;;;;;;;;;;20.10;67.70;;;19.42;61.56;96776.78;6058691;23;19921;-86
2023/08/15 05:26:03;;;;;;;;;;;20.10;67.90;;;19.47;61.95;96781.38;6061131;23;19943;-86
2023/08/15 05:28:36;;;;;;;;;;;20.10;68.00;;;19.55;62.12;96779.81;6082641;23;19921;-86
2023/08/15 05:31:07;;;;;;;;;;;20.20;68.40;;;19.58;61.95;96784.75;6058884;23;19932;-87
2023/08/15 05:33:37;;;;;;;;;;;20.20;67.70;;;19.66;61.69;96785.94;6082836;23;19921;-86
2023/08/15 05:36:06;;;;;;;;;;;20.30;67.70;;;19.75;61.32;96792.38;6059632;23;19921;-87
2023/08/15 05:38:44;;;;;;;;;;;20.40;67.60;;;19.84;61.22;96784.91;6082679;23;19928;-87
2023/08/15 05:41:16;;;;;;;;;;;20.40;67.30;;;19.93;60.80;96785.84;6035763;23;19928;-87
2023/08/15 05:43:44;;;;;;;;;;;20.50;67.00;;;20.03;60.47;96778.38;6059218;23;19928;-86
2023/08/15 05:46:16;;;;;;;;;;;20.60;66.70;;;20.12;60.25;96793.13;6083066;23;19928;-86
2023/08/15 05:48:52;;;;;;;;;;;20.70;66.40;;;20.22;60.21;96792.84;6059471;23;19925;-87
2023/08/15 05:51:44;;;;;;;;;;;20.80;66.20;;;20.28;60.01;96784.38;6058839;23;19921;-86
2023/08/15 05:54:43;;;;;;;;;;;20.90;65.90;;;20.34;59.66;96788.66;6059640;23;19932;-86
2023/08/15 06:01:24;;;;;;;;;;;21.00;65.50;;;20.32;59.88;96780.66;6052561;23;19928;-87
2023/08/15 06:03:54;;;;;;;;;;;21.00;65.30;;;20.31;59.79;96789.31;6059154;23;20363;-87
2023/08/15 06:06:25;;;;;;;;;;;21.00;65.30;;;20.26;59.70;96790.28;6059357;23;19932;-87
2023/08/15 06:08:57;;;;;;;;;;;20.90;65.40;;;20.24;59.89;96787.81;6059380;23;19921;-86
2023/08/15 06:11:33;;;;;;;;;;;20.90;65.60;;;20.26;59.72;96786.66;6059254;23;19921;-86
2023/08/15 06:14:02;;;;;;;;;;;20.90;65.60;;;20.32;59.94;96789.00;6058742;23;19944;-87
2023/08/15 06:16:30;;;;;;;;;;;20.90;65.70;;;20.35;59.49;96777.22;6058780;23;19921;-87
2023/08/15 06:19:00;;;;;;;;;;;21.00;65.40;;;20.36;59.59;96787.22;6058905;23;20292;-87
2023/08/15 06:21:28;;;;;;;;;;;21.00;65.40;;;20.43;59.51;96786.75;6058963;23;20430;-87
2023/08/15 06:23:57;;;;;;;;;;;21.00;65.50;;;20.48;59.50;96788.56;6058980;23;19932;-87
2023/08/15 06:26:27;;;;;;;;;;;21.00;65.30;;;20.48;59.45;96772.69;6058772;23;19925;-87
2023/08/15 06:28:55;;;;;;;;;;;21.10;65.40;;;20.53;59.30;96780.91;6058714;23;19929;-87
2023/08/15 06:31:26;;;;;;;;;;;21.10;65.30;;;20.56;59.22;96781.41;6058338;23;19953;-87
2023/08/15 06:34:04;;;;;;;;;;;21.10;65.20;;;20.59;59.15;96769.66;6059036;23;19970;-87
2023/08/15 06:36:34;;;;;;;;;;;21.20;65.00;;;20.60;58.93;96768.47;6060043;23;20265;-87
2023/08/15 06:39:05;;;;;;;;;;;21.20;64.80;;;20.63;59.15;96773.41;6059828;23;19921;-87
2023/08/15 06:41:33;;;;;;;;;;;21.20;64.90;;;20.64;58.87;96773.09;6108406;23;19928;-87
2023/08/15 06:44:02;;;;;;;;;;;21.20;64.80;;;20.66;59.01;96773.56;6059669;23;19948;-87
2023/08/15 06:46:30;;;;;;;;;;;21.30;64.90;;;20.66;59.07;96787.47;6059945;23;19920;-87
2023/08/15 06:48:59;;;;;;;;;;;21.30;64.90;;;20.64;59.13;96786.16;6059894;23;19921;-87
2023/08/15 06:51:36;;;;;;;;;;;21.30;64.90;;;20.62;59.15;96794.00;6061261;23;20337;-87
2023/08/15 06:54:05;;;;;;;;;;;21.20;64.80;;;20.61;59.31;96798.78;6059581;23;19928;-86
2023/08/15 06:56:33;;;;;;;;;;;21.20;65.00;;;20.59;59.23;96800.25;6082678;23;19928;-87
2023/08/15 06:59:02;;;;;;;;;;;21.20;65.10;;;20.59;59.33;96791.91;6084112;23;20339;-86
2023/08/15 07:01:30;;;;;;;;;;;21.20;65.10;;;20.58;59.34;96781.91;6059420;23;20264;-86
2023/08/15 07:03:59;;;;;;;;;;;21.20;65.20;;;20.56;59.52;96784.19;6060222;23;19928;-87
2023/08/15 07:06:32;;;;;;;;;;;21.20;65.20;;;20.56;59.62;96770.28;6059792;23;19928;-87
2023/08/15 07:09:01;;;;;;;;;;;21.20;65.20;;;20.53;59.83;96761.44;6059852;23;19921;-87
2023/08/15 07:11:30;;;;;;;;;;;21.20;65.40;;;20.51;59.68;96766.50;6059397;23;19921;-87
2023/08/15 07:13:58;;;;;;;;;;;21.10;65.40;;;20.49;59.70;96791.03;6059974;23;19921;-87
2023/08/15 07:16:34;;;;;;;;;;;21.10;65.40;;;20.50;59.93;96797.41;6060021;23;19920;-87
2023/08/15 07:19:04;;;;;;;;;;;21.10;65.50;;;20.51;59.82;96810.19;6059812;23;19920;-87
2023/08/15 07:21:32;;;;;;;;;;;21.10;65.60;;;20.52;59.34;96803.50;6059385;23;19928;-87
2023/08/15 07:24:02;;;;;;;;;;;21.10;65.10;;;20.52;59.49;96820.19;6060149;23;19928;-87
2023/08/15 07:26:31;;;;;;;;;;;21.10;65.30;;;20.49;59.68;96829.97;6059754;23;20364;-87
2023/08/15 07:29:09;;;;;;;;;;;21.10;65.30;;;20.45;59.66;96833.69;6059812;23;19928;-87
2023/08/15 07:31:45;;;;;;;;;;;21.10;65.50;;;20.43;60.07;96836.81;6059229;23;19921;-87
2023/08/15 07:34:16;;;;;;;;;;;21.00;65.50;;;20.38;59.75;96837.78;6083196;23;20238;-87
2023/08/15 07:36:46;;;;;;;;;;;21.00;65.60;;;20.34;59.97;96841.50;6083002;23;20352;-87
2023/08/15 07:39:21;;;;;;;;;;;21.00;65.70;;;20.31;60.10;96836.59;6083692;23;19920;-87
2023/08/15 07:41:51;;;;;;;;;;;21.00;66.00;;;20.29;60.25;96817.41;6059391;23;20341;-87
2023/08/15 07:44:19;;;;;;;;;;;21.00;66.00;;;20.28;60.44;96806.63;6083422;23;19921;-87
2023/08/15 07:46:48;;;;;;;;;;;20.90;66.10;;;20.24;60.67;96785.03;6059432;23;19921;-87
2023/08/15 07:49:16;;;;;;;;;;;20.90;66.30;;;20.23;60.63;96775.03;6060249;23;19925;-87
2023/08/15 07:51:44;;;;;;;;;;;20.90;66.40;;;20.20;60.77;96767.34;6059230;23;19921;-87
2023/08/15 07:54:16;;;;;;;;;;;20.80;66.40;;;20.18;60.80;96766.03;6083790;23;20498;-87
2023/08/15 07:56:46;;;;;;;;;;;20.80;66.50;;;20.18;60.88;96758.50;6059714;23;19920;-87
2023/08/15 07:59:14;;;;;;;;;;;20.80;66.60;;;20.15;60.87;96759.16;6059352;23;19928;-87
2023/08/15 08:01:43;;;;;;;;;;;20.80;66.70;;;20.14;60.94;96754.72;6083403;23;19921;-87
2023/08/15 08:04:13;;;;;;;;;;;20.80;66.80;;;20.14;60.95;96774.19;6083596;23;19921;-87
2023/08/15 08:06:44;;;;;;;;;;;20.80;66.80;;;20.11;60.96;96802.59;6060185;23;19929;-87
2023/08/15 08:09:12;;;;;;;;;;;20.80;67.00;;;20.12;61.02;96829.28;6059698;23;19921;-87
2023/08/15 08:11:48;;;;;;;;;;;20.80;67.00;;;20.13;61.35;96838.44;6058951;23;19921;-87
2023/08/15 08:14:19;;;;;;;;;;;20.70;67.10;;;20.11;61.10;96830.41;6083372;23;19925;-87
2023/08/15 08:16:54;;;;;;;;;;;20.70;67.10;;;20.12;61.33;96826.50;6083437;23;19928;-87
2023/08/15 08:19:24;;;;;;;;;;;20.70;67.20;;;20.11;61.37;96841.53;6037038;23;19931;-87
2023/08/15 08:21:53;;;;;;;;;;;20.70;67.30;;;20.10;61.82;96862.13;6059134;23;19952;-87
2023/08/15 08:24:24;;;;;;;;;;;20.70;68.60;;;20.12;61.35;96859.84;6059791;23;19928;-87
2023/08/15 08:26:58;;;;;;;;;;;20.70;67.30;;;20.14;61.38;96845.66;6108339;23;20253;-87
2023/08/15 08:29:29;;;;;;;;;;;20.70;67.30;;;20.14;61.29;96848.44;6059402;23;19932;-87
2023/08/15 08:32:00;;;;;;;;;;;20.70;67.40;;;20.13;61.43;96855.94;6059329;23;19925;-87
2023/08/15 08:34:28;;;;;;;;;;;20.80;67.50;;;20.13;61.46;96844.00;6059425;23;19944;-87
2023/08/15 08:36:57;;;;;;;;;;;20.80;67.50;;;20.15;61.69;96830.59;6059770;23;20344;-87
2023/08/15 08:39:38;;;;;;;;;;;20.80;67.60;;;20.14;61.76;96843.69;6059871;23;19925;-87
2023/08/15 08:42:11;;;;;;;;;;;20.80;67.60;;;20.14;61.56;96856.78;6073492;23;19932;-87
2023/08/15 08:44:41;;;;;;;;;;;20.80;67.60;;;20.18;61.67;96857.75;6054455;23;19921;-87
2023/08/15 08:47:13;;;;;;;;;;;20.80;67.70;;;20.17;61.41;96845.00;6059739;23;19928;-87
2023/08/15 08:49:41;;;;;;;;;;;20.80;67.60;;;20.18;61.77;96825.22;6059425;23;19921;-87
2023/08/15 08:52:10;;;;;;;;;;;20.80;67.70;;;20.17;61.96;96829.16;6058937;23;19921;-87
2023/08/15 08:54:41;;;;;;;;;;;20.80;67.60;;;20.21;61.77;96830.13;6059373;23;19928;-87
2023/08/15 08:57:12;;;;;;;;;;;20.90;67.80;;;20.22;61.33;96819.84;6059229;23;20345;-87
2023/08/15 08:59:43;;;;;;;;;;;20.80;67.60;;;20.23;61.66;96802.84;6107454;23;19944;-87
2023/08/15 09:02:15;;;;;;;;;;;20.90;67.70;;;20.23;61.33;96793.69;6059438;23;19921;-87
2023/08/15 09:04:47;;;;;;;;;;;20.80;67.50;;;20.23;61.44;96788.94;6082648;23;19943;-87
2023/08/15 09:07:16;;;;;;;;;;;20.90;67.60;;;20.24;61.56;96785.03;6059603;23;19944;-87
2023/08/15 09:09:44;;;;;;;;;;;20.90;67.50;;;20.29;61.37;96783.25;6107976;23;20354;-87
2023/08/15 09:12:22;;;;;;;;;;;20.90;67.50;;;20.26;61.28;96790.28;6082555;23;19921;-87
2023/08/15 09:14:52;;;;;;;;;;;20.90;67.50;;;20.28;61.54;96789.94;6058599;23;19925;-87
2023/08/15 09:17:24;;;;;;;;;;;20.90;67.50;;;20.29;61.42;96786.84;6059564;23;19921;-86
2023/08/15 09:19:52;;;;;;;;;;;20.90;67.40;;;20.28;61.38;96795.50;6059286;23;19921;-86
2023/08/15 09:22:24;;;;;;;;;;;20.90;67.40;;;20.26;61.33;96818.09;6058922;23;20341;-87
2023/08/15 09:24:52;;;;;;;;;;;20.90;67.40;;;20.26;61.63;96829.22;6082887;23;19921;-86
2023/08/15 09:27:21;;;;;;;;;;;20.90;67.60;;;20.28;61.51;96837.22;6059387;23;19921;-86
2023/08/15 09:30:07;;;;;;;;;;;20.90;67.40;;;20.27;61.38;96835.56;6059130;23;19921;-86
2023/08/15 09:32:36;;;;;;;;;;;20.90;67.40;;;20.26;61.32;96818.09;6059125;23;19944;-86
2023/08/15 09:35:05;;;;;;;;;;;20.90;67.40;;;20.26;61.26;96803.34;6059197;23;19921;-86
2023/08/15 09:37:41;;;;;;;;;;;20.90;67.50;;;20.27;61.53;96807.78;6060213;23;19925;-86
2023/08/15 09:40:12;;;;;;;;;;;20.90;67.50;;;20.29;61.45;96819.41;6082918;23;20318;-86
2023/08/15 09:42:41;;;;;;;;;;;20.90;67.50;;;20.30;61.55;96826.59;6107552;23;19921;-86
2023/08/15 09:45:21;;;;;;;;;;;20.90;67.50;;;20.29;61.46;96825.75;6083484;23;19921;-86
2023/08/15 09:47:49;;;;;;;;;;;20.90;67.50;;;20.29;61.47;96825.75;6059053;23;19921;-86
2023/08/15 09:50:23;;;;;;;;;;;20.90;67.70;;;20.32;61.32;96818.78;6082507;23;19921;-86
2023/08/15 09:52:51;;;;;;;;;;;21.00;67.50;;;20.34;61.65;96828.41;6058726;23;19929;-86
2023/08/15 09:55:27;;;;;;;;;;;21.00;67.70;;;20.36;61.64;96828.09;6059623;23;19928;-86
2023/08/15 09:57:57;;;;;;;;;;;21.00;67.70;;;20.42;61.74;96834.34;6082897;23;19921;-86
2023/08/15 10:00:30;;;;;;;;;;;21.00;67.90;;;20.44;61.60;96826.50;6058985;23;19921;-86
2023/08/15 10:03:03;;;;;;;;;;;21.00;67.70;;;20.44;61.40;96815.38;6059012;23;19932;-86
2023/08/15 10:05:33;;;;;;;;;;;21.00;67.50;;;20.43;61.30;96810.94;6058953;23;19928;-86
2023/08/15 10:08:05;;;;;;;;;;;21.00;67.30;;;20.41;61.15;96805.72;6082742;23;20252;-86
2023/08/15 10:10:35;;;;;;;;;;;21.00;67.20;;;20.42;61.14;96818.50;6058811;23;19921;-86
2023/08/15 10:13:03;;;;;;;;;;;21.00;67.20;;;20.37;61.34;96811.09;6058693;23;20333;-86
2023/08/15 10:15:33;;;;;;;;;;;21.00;67.30;;;20.36;61.35;96770.53;6082857;23;19921;-86
2023/08/15 10:18:01;;;;;;;;;;;21.00;67.30;;;20.36;61.35;96780.81;6081935;23;19928;-86
2023/08/15 10:20:37;;;;;;;;;;;21.00;67.30;;;20.36;61.10;96803.06;6058679;23;20345;-86
2023/08/15 10:23:18;;;;;;;;;;;21.00;67.40;;;20.35;61.56;96812.53;6082513;23;20337;-86
2023/08/15 10:25:53;;;;;;;;;;;21.00;67.50;;;20.34;61.50;96806.19;6081431;23;19928;-86
2023/08/15 10:28:27;;;;;;;;;;;21.00;67.50;;;20.39;61.43;96808.00;6082611;23;19921;-86
2023/08/15 10:30:59;;;;;;;;;;;21.00;67.50;;;20.38;61.41;96801.63;6081581;23;19921;-86
2023/08/15 10:33:31;;;;;;;;;;;21.00;67.40;;;20.37;61.46;96808.31;6058582;23;19921;-86
2023/08/15 10:36:09;;;;;;;;;;;21.00;67.30;;;20.42;61.45;96823.22;6059072;23;19921;-87
2023/08/15 10:38:43;;;;;;;;;;;21.00;67.30;;;20.42;61.34;96815.72;6082458;23;19921;-86
2023/08/15 10:41:18;;;;;;;;;;;21.00;67.20;;;20.42;61.21;96815.72;6058287;23;19921;-87
2023/08/15 10:43:48;;;;;;;;;;;21.00;67.20;;;20.44;61.35;96821.78;6058648;23;19944;-86
2023/08/15 10:46:22;;;;;;;;;;;21.00;67.10;;;20.45;61.26;96809.50;6058713;23;19921;-87
2023/08/15 10:48:51;;;;;;;;;;;21.00;67.00;;;20.46;61.04;96813.91;6058606;23;19925;-87
2023/08/15 10:51:18;;;;;;;;;;;21.10;67.20;;;20.49;61.10;96812.47;6058454;23;20341;-86
2023/08/15 10:53:50;;;;;;;;;;;21.10;67.00;;;20.48;60.95;96794.94;6081994;23;19928;-87
2023/08/15 10:56:22;;;;;;;;;;;21.10;67.00;;;20.51;60.99;96811.00;6058087;23;20359;-87
2023/08/15 10:58:50;;;;;;;;;;;21.10;67.00;;;20.52;60.95;96800.72;6058663;23;19929;-87
2023/08/15 11:01:20;;;;;;;;;;;21.20;66.80;;;20.57;60.78;96816.44;6082258;23;20294;-87
2023/08/15 11:03:51;;;;;;;;;;;21.20;66.80;;;20.58;60.73;96804.16;6058700;23;19925;-87
2023/08/15 11:06:19;;;;;;;;;;;21.20;66.50;;;20.60;60.45;96797.13;6058925;23;19924;-87
2023/08/15 11:08:48;;;;;;;;;;;21.20;66.30;;;20.62;60.33;96785.66;6058530;23;20260;-87
2023/08/15 11:11:21;;;;;;;;;;;21.20;66.00;;;20.64;60.34;96792.56;6058449;23;19928;-87
2023/08/15 11:13:53;;;;;;;;;;;21.30;66.10;;;20.63;60.02;96774.25;6081718;23;19925;-87
2023/08/15 11:16:23;;;;;;;;;;;21.30;65.80;;;20.69;59.72;96783.25;6052626;23;20292;-87
2023/08/15 11:18:52;;;;;;;;;;;21.30;66.30;;;20.75;59.88;96773.63;6058318;23;19928;-87
2023/08/15 11:21:20;;;;;;;;;;;21.30;65.70;;;20.77;59.99;96773.31;6081495;23;19928;-87
2023/08/15 11:23:54;;;;;;;;;;;21.40;65.60;;;20.79;60.20;96771.00;6083185;23;19921;-87
2023/08/15 11:26:26;;;;;;;;;;;21.40;65.60;;;20.80;60.18;96769.88;6060129;23;19921;-87
2023/08/15 11:28:55;;;;;;;;;;;21.40;65.80;;;20.80;60.32;96761.53;6083058;23;19921;-87
2023/08/15 11:31:26;;;;;;;;;;;21.40;66.00;;;20.79;60.40;96752.38;6059323;23;19928;-87
2023/08/15 11:34:02;;;;;;;;;;;21.40;66.00;;;20.80;60.51;96754.00;6084091;23;19928;-87
2023/08/15 11:36:30;;;;;;;;;;;21.40;66.10;;;20.81;60.19;96764.00;6083476;23;19921;-87
2023/08/15 11:39:04;;;;;;;;;;;21.40;65.80;;;20.87;59.32;96766.63;6059687;23;19921;-86
2023/08/15 11:41:32;;;;;;;;;;;21.50;64.90;;;20.90;59.94;96777.09;6083078;23;19928;-87
2023/08/15 11:44:04;;;;;;;;;;;21.50;65.60;;;20.90;59.64;96771.53;6083543;23;19928;-87
2023/08/15 11:46:41;;;;;;;;;;;21.50;65.40;;;20.90;59.87;96766.81;6059659;23;19928;-87
2023/08/15 11:49:17;;;;;;;;;;;21.50;65.40;;;20.92;59.62;96761.72;6082976;23;19928;-87
2023/08/15 11:51:45;;;;;;;;;;;21.50;66.20;;;20.91;59.76;96762.06;6059340;23;19921;-86